sensor_id;sensor_type;location;lat;lon;timestamp;pressure;altitude;pressure_sealevel;temperature;humidity
42385;BME280;28042;43.986;22.860;2023-06-26T00:00:17;100795.66;;;19.26;100.00
42385;BME280;28042;43.986;22.860;2023-06-26T00:02:42;100792.63;;;19.27;100.00
42385;BME280;28042;43.986;22.860;2023-06-26T00:05:08;100822.16;;;19.38;100.00
42385;BME280;28042;43.986;22.860;2023-06-26T00:07:33;100793.13;;;19.24;100.00
42385;BME280;28042;43.986;22.860;2023-06-26T00:10:03;100818.84;;;19.41;100.00
42385;BME280;28042;43.986;22.860;2023-06-26T00:12:29;100810.56;;;19.41;100.00
42385;BME280;28042;43.986;22.860;2023-06-26T00:14:55;100787.69;;;19.29;100.00
42385;BME280;28042;43.986;22.860;2023-06-26T00:17:21;100801.94;;;19.38;100.00
42385;BME280;28042;43.986;22.860;2023-06-26T00:19:47;100779.22;;;19.19;100.00
42385;BME280;28042;43.986;22.860;2023-06-26T00:22:12;100786.94;;;19.17;100.00
42385;BME280;28042;43.986;22.860;2023-06-26T00:24:38;100817.09;;;19.35;100.00
42385;BME280;28042;43.986;22.860;2023-06-26T00:27:03;100803.47;;;19.29;100.00
42385;BME280;28042;43.986;22.860;2023-06-26T00:29:29;100780.94;;;19.20;100.00
42385;BME280;28042;43.986;22.860;2023-06-26T00:31:54;100797.66;;;19.30;100.00
42385;BME280;28042;43.986;22.860;2023-06-26T00:34:20;100774.78;;;19.18;100.00
42385;BME280;28042;43.986;22.860;2023-06-26T00:36:45;100799.81;;;19.28;100.00
42385;BME280;28042;43.986;22.860;2023-06-26T00:39:11;100799.81;;;19.28;100.00
42385;BME280;28042;43.986;22.860;2023-06-26T00:41:37;100805.34;;;19.28;100.00
42385;BME280;28042;43.986;22.860;2023-06-26T00:44:07;100801.13;;;19.20;100.00
42385;BME280;28042;43.986;22.860;2023-06-26T00:46:32;100782.41;;;19.11;100.00
42385;BME280;28042;43.986;22.860;2023-06-26T00:49:00;100791.31;;;19.13;100.00
42385;BME280;28042;43.986;22.860;2023-06-26T00:51:29;100813.09;;;19.26;100.00
42385;BME280;28042;43.986;22.860;2023-06-26T00:53:54;100800.03;;;19.22;100.00
42385;BME280;28042;43.986;22.860;2023-06-26T00:56:20;100800.69;;;19.12;100.00
42385;BME280;28042;43.986;22.860;2023-06-26T00:58:46;100803.47;;;19.12;100.00
42385;BME280;28042;43.986;22.860;2023-06-26T01:01:12;100783.59;;;18.98;100.00
42385;BME280;28042;43.986;22.860;2023-06-26T01:03:43;100802.19;;;19.19;100.00
42385;BME280;28042;43.986;22.860;2023-06-26T01:06:11;100805.81;;;19.20;100.00
42385;BME280;28042;43.986;22.860;2023-06-26T01:08:41;100774.56;;;19.03;100.00
42385;BME280;28042;43.986;22.860;2023-06-26T01:11:08;100771.44;;;18.99;100.00
42385;BME280;28042;43.986;22.860;2023-06-26T01:13:34;100799.19;;;19.21;100.00
42385;BME280;28042;43.986;22.860;2023-06-26T01:16:01;100781.66;;;19.15;100.00
42385;BME280;28042;43.986;22.860;2023-06-26T01:18:29;100791.47;;;19.23;100.00
42385;BME280;28042;43.986;22.860;2023-06-26T01:20:55;100801.34;;;19.19;100.00
42385;BME280;28042;43.986;22.860;2023-06-26T01:26:26;100796.44;;;19.21;100.00
42385;BME280;28042;43.986;22.860;2023-06-26T01:28:53;100769.63;;;19.05;100.00
42385;BME280;28042;43.986;22.860;2023-06-26T01:31:21;100774.63;;;19.08;100.00
42385;BME280;28042;43.986;22.860;2023-06-26T01:33:47;100771.81;;;19.03;100.00
42385;BME280;28042;43.986;22.860;2023-06-26T01:36:12;100776.25;;;19.04;100.00
42385;BME280;28042;43.986;22.860;2023-06-26T01:38:38;100795.31;;;19.22;100.00
42385;BME280;28042;43.986;22.860;2023-06-26T01:41:04;100790.13;;;19.26;100.00
42385;BME280;28042;43.986;22.860;2023-06-26T01:44:01;100800.44;;;19.30;100.00
42385;BME280;28042;43.986;22.860;2023-06-26T01:52:12;100793.28;;;19.34;100.00
42385;BME280;28042;43.986;22.860;2023-06-26T01:54:52;100794.13;;;19.35;100.00
42385;BME280;28042;43.986;22.860;2023-06-26T01:57:20;100795.47;;;19.32;100.00
42385;BME280;28042;43.986;22.860;2023-06-26T01:59:48;100769.78;;;19.15;100.00
42385;BME280;28042;43.986;22.860;2023-06-26T02:02:14;100788.13;;;19.21;100.00
42385;BME280;28042;43.986;22.860;2023-06-26T02:04:40;100798.16;;;19.27;100.00
42385;BME280;28042;43.986;22.860;2023-06-26T02:07:05;100778.59;;;19.12;100.00
42385;BME280;28042;43.986;22.860;2023-06-26T02:09:31;100806.38;;;19.22;100.00
42385;BME280;28042;43.986;22.860;2023-06-26T02:11:56;100813.03;;;19.21;100.00
42385;BME280;28042;43.986;22.860;2023-06-26T02:14:22;100811.34;;;19.20;100.00
42385;BME280;28042;43.986;22.860;2023-06-26T02:16:47;100781.78;;;19.04;100.00
42385;BME280;28042;43.986;22.860;2023-06-26T02:19:13;100793.81;;;18.98;100.00
42385;BME280;28042;43.986;22.860;2023-06-26T02:21:47;100814.44;;;19.07;100.00
42385;BME280;28042;43.986;22.860;2023-06-26T02:24:12;100784.44;;;18.82;100.00
42385;BME280;28042;43.986;22.860;2023-06-26T02:26:38;100812.41;;;19.02;100.00
42385;BME280;28042;43.986;22.860;2023-06-26T02:29:03;100788.13;;;18.87;100.00
42385;BME280;28042;43.986;22.860;2023-06-26T02:31:29;100809.91;;;19.01;100.00
42385;BME280;28042;43.986;22.860;2023-06-26T02:33:55;100810.75;;;19.01;100.00
42385;BME280;28042;43.986;22.860;2023-06-26T02:36:21;100804.78;;;19.09;100.00
42385;BME280;28042;43.986;22.860;2023-06-26T02:38:46;100783.09;;;19.01;100.00
42385;BME280;28042;43.986;22.860;2023-06-26T02:41:11;100799.69;;;19.18;100.00
42385;BME280;28042;43.986;22.860;2023-06-26T02:43:37;100777.41;;;19.08;100.00
42385;BME280;28042;43.986;22.860;2023-06-26T02:46:02;100779.72;;;19.16;100.00
42385;BME280;28042;43.986;22.860;2023-06-26T02:48:28;100774.28;;;19.21;100.00
42385;BME280;28042;43.986;22.860;2023-06-26T02:50:53;100777.13;;;19.26;100.00
42385;BME280;28042;43.986;22.860;2023-06-26T02:53:19;100768.34;;;19.29;100.00
42385;BME280;28042;43.986;22.860;2023-06-26T02:55:44;100788.75;;;19.45;100.00
42385;BME280;28042;43.986;22.860;2023-06-26T02:58:10;100781.97;;;19.36;100.00
42385;BME280;28042;43.986;22.860;2023-06-26T03:00:35;100809.19;;;19.44;100.00
42385;BME280;28042;43.986;22.860;2023-06-26T03:03:07;100807.28;;;19.44;100.00
42385;BME280;28042;43.986;22.860;2023-06-26T03:05:32;100780.66;;;19.38;100.00
42385;BME280;28042;43.986;22.860;2023-06-26T03:07:57;100790.44;;;19.46;100.00
42385;BME280;28042;43.986;22.860;2023-06-26T03:10:23;100797.31;;;19.43;100.00
42385;BME280;28042;43.986;22.860;2023-06-26T03:12:48;100782.38;;;19.44;100.00
42385;BME280;28042;43.986;22.860;2023-06-26T03:15:14;100813.59;;;19.57;100.00
42385;BME280;28042;43.986;22.860;2023-06-26T03:17:39;100789.78;;;19.39;100.00
42385;BME280;28042;43.986;22.860;2023-06-26T03:20:06;100786.41;;;19.37;100.00
42385;BME280;28042;43.986;22.860;2023-06-26T03:22:33;100816.94;;;19.59;100.00
42385;BME280;28042;43.986;22.860;2023-06-26T03:24:58;100806.19;;;19.62;100.00
42385;BME280;28042;43.986;22.860;2023-06-26T03:27:24;100812.91;;;19.66;100.00
42385;BME280;28042;43.986;22.860;2023-06-26T03:29:52;100822.25;;;19.82;100.00
42385;BME280;28042;43.986;22.860;2023-06-26T03:32:18;100799.34;;;20.09;100.00
42385;BME280;28042;43.986;22.860;2023-06-26T03:34:43;100799.97;;;20.65;100.00
42385;BME280;28042;43.986;22.860;2023-06-26T03:37:09;100795.34;;;21.07;100.00
42385;BME280;28042;43.986;22.860;2023-06-26T03:39:34;100804.69;;;21.70;100.00
42385;BME280;28042;43.986;22.860;2023-06-26T03:42:00;100780.38;;;21.93;100.00
42385;BME280;28042;43.986;22.860;2023-06-26T03:44:26;100798.94;;;22.60;100.00
42385;BME280;28042;43.986;22.860;2023-06-26T03:46:52;100797.34;;;23.15;100.00
42385;BME280;28042;43.986;22.860;2023-06-26T03:49:17;100778.88;;;23.75;100.00
42385;BME280;28042;43.986;22.860;2023-06-26T03:51:43;100771.56;;;23.94;100.00
42385;BME280;28042;43.986;22.860;2023-06-26T03:54:09;100773.56;;;24.43;100.00
42385;BME280;28042;43.986;22.860;2023-06-26T03:56:34;100788.84;;;24.90;100.00
42385;BME280;28042;43.986;22.860;2023-06-26T03:59:00;100767.41;;;24.86;98.34
42385;BME280;28042;43.986;22.860;2023-06-26T04:01:25;100784.22;;;25.15;96.87
42385;BME280;28042;43.986;22.860;2023-06-26T04:03:51;100790.19;;;25.32;94.91
42385;BME280;28042;43.986;22.860;2023-06-26T04:06:16;100780.50;;;25.77;94.09
42385;BME280;28042;43.986;22.860;2023-06-26T04:08:41;100770.63;;;26.09;89.84
42385;BME280;28042;43.986;22.860;2023-06-26T04:11:07;100757.06;;;26.40;86.09
42385;BME280;28042;43.986;22.860;2023-06-26T04:13:32;100790.97;;;27.09;84.32
42385;BME280;28042;43.986;22.860;2023-06-26T04:15:58;100778.66;;;26.91;82.05
42385;BME280;28042;43.986;22.860;2023-06-26T04:18:23;100806.22;;;26.65;83.15
42385;BME280;28042;43.986;22.860;2023-06-26T04:21:06;100797.88;;;26.97;82.49
42385;BME280;28042;43.986;22.860;2023-06-26T04:23:36;100797.66;;;26.94;79.57
42385;BME280;28042;43.986;22.860;2023-06-26T04:26:02;100796.31;;;26.54;82.74
42385;BME280;28042;43.986;22.860;2023-06-26T04:28:28;100810.69;;;26.85;81.98
42385;BME280;28042;43.986;22.860;2023-06-26T04:30:53;100803.09;;;26.66;82.03
42385;BME280;28042;43.986;22.860;2023-06-26T04:33:19;100792.53;;;26.20;83.35
42385;BME280;28042;43.986;22.860;2023-06-26T04:35:44;100798.28;;;26.10;85.44
42385;BME280;28042;43.986;22.860;2023-06-26T04:38:14;100785.22;;;26.25;85.00
42385;BME280;28042;43.986;22.860;2023-06-26T04:40:39;100800.63;;;26.46;82.07
42385;BME280;28042;43.986;22.860;2023-06-26T04:43:05;100780.00;;;26.42;83.20
42385;BME280;28042;43.986;22.860;2023-06-26T04:45:30;100767.91;;;26.98;80.07
42385;BME280;28042;43.986;22.860;2023-06-26T04:47:55;100786.53;;;27.08;79.55
42385;BME280;28042;43.986;22.860;2023-06-26T04:50:22;100775.41;;;27.49;76.91
42385;BME280;28042;43.986;22.860;2023-06-26T04:52:48;100778.06;;;27.26;75.47
42385;BME280;28042;43.986;22.860;2023-06-26T04:55:13;100786.59;;;27.35;76.37
42385;BME280;28042;43.986;22.860;2023-06-26T04:57:38;100783.81;;;27.49;74.12
42385;BME280;28042;43.986;22.860;2023-06-26T05:00:04;100791.16;;;27.45;74.98
42385;BME280;28042;43.986;22.860;2023-06-26T05:02:35;100786.88;;;27.66;74.82
42385;BME280;28042;43.986;22.860;2023-06-26T05:05:01;100782.94;;;28.08;71.60
42385;BME280;28042;43.986;22.860;2023-06-26T05:07:26;100799.63;;;28.27;70.48
42385;BME280;28042;43.986;22.860;2023-06-26T05:09:51;100787.22;;;28.56;69.31
42385;BME280;28042;43.986;22.860;2023-06-26T05:12:17;100773.84;;;28.75;67.33
42385;BME280;28042;43.986;22.860;2023-06-26T05:14:42;100794.97;;;28.36;68.13
42385;BME280;28042;43.986;22.860;2023-06-26T05:17:08;100787.81;;;28.03;67.88
42385;BME280;28042;43.986;22.860;2023-06-26T05:19:33;100778.66;;;27.70;70.20
42385;BME280;28042;43.986;22.860;2023-06-26T05:22:00;100805.69;;;28.07;69.21
42385;BME280;28042;43.986;22.860;2023-06-26T05:24:30;100787.53;;;27.30;70.20
42385;BME280;28042;43.986;22.860;2023-06-26T05:26:56;100798.47;;;27.46;70.60
42385;BME280;28042;43.986;22.860;2023-06-26T05:29:21;100810.25;;;27.29;71.11
42385;BME280;28042;43.986;22.860;2023-06-26T05:31:49;100803.63;;;27.39;71.10
42385;BME280;28042;43.986;22.860;2023-06-26T05:34:15;100808.59;;;27.42;70.83
42385;BME280;28042;43.986;22.860;2023-06-26T05:36:42;100801.63;;;27.25;71.56
42385;BME280;28042;43.986;22.860;2023-06-26T05:39:09;100792.00;;;27.31;70.66
42385;BME280;28042;43.986;22.860;2023-06-26T05:41:34;100815.69;;;27.53;71.36
42385;BME280;28042;43.986;22.860;2023-06-26T05:44:00;100809.03;;;27.49;70.87
42385;BME280;28042;43.986;22.860;2023-06-26T05:46:25;100822.88;;;27.26;69.91
42385;BME280;28042;43.986;22.860;2023-06-26T05:48:51;100799.72;;;26.69;71.10
42385;BME280;28042;43.986;22.860;2023-06-26T05:51:17;100812.13;;;27.33;70.41
42385;BME280;28042;43.986;22.860;2023-06-26T05:53:42;100790.66;;;27.43;68.39
42385;BME280;28042;43.986;22.860;2023-06-26T05:56:08;100786.63;;;27.49;68.73
42385;BME280;28042;43.986;22.860;2023-06-26T05:58:35;100814.06;;;27.66;68.29
42385;BME280;28042;43.986;22.860;2023-06-26T06:01:00;100816.47;;;27.86;67.75
42385;BME280;28042;43.986;22.860;2023-06-26T06:03:26;100802.16;;;28.01;67.05
42385;BME280;28042;43.986;22.860;2023-06-26T06:05:52;100799.97;;;27.84;67.22
42385;BME280;28042;43.986;22.860;2023-06-26T06:08:17;100814.31;;;28.10;66.79
42385;BME280;28042;43.986;22.860;2023-06-26T06:10:43;100800.44;;;28.91;62.66
42385;BME280;28042;43.986;22.860;2023-06-26T06:13:08;100798.09;;;29.07;60.03
42385;BME280;28042;43.986;22.860;2023-06-26T06:15:34;100820.28;;;29.17;60.13
42385;BME280;28042;43.986;22.860;2023-06-26T06:17:59;100832.16;;;27.73;63.15
42385;BME280;28042;43.986;22.860;2023-06-26T06:20:25;100812.28;;;27.56;65.17
42385;BME280;28042;43.986;22.860;2023-06-26T06:22:50;100808.59;;;28.15;64.40
42385;BME280;28042;43.986;22.860;2023-06-26T06:25:16;100788.22;;;28.37;64.70
42385;BME280;28042;43.986;22.860;2023-06-26T06:27:41;100812.31;;;28.52;62.99
42385;BME280;28042;43.986;22.860;2023-06-26T06:30:08;100813.41;;;28.65;62.94
42385;BME280;28042;43.986;22.860;2023-06-26T06:32:34;100817.50;;;28.95;61.50
42385;BME280;28042;43.986;22.860;2023-06-26T06:34:59;100802.38;;;28.32;62.33
42385;BME280;28042;43.986;22.860;2023-06-26T06:37:29;100801.47;;;28.95;61.78
42385;BME280;28042;43.986;22.860;2023-06-26T06:39:56;100790.22;;;29.18;60.11
42385;BME280;28042;43.986;22.860;2023-06-26T06:42:22;100793.69;;;29.15;60.08
42385;BME280;28042;43.986;22.860;2023-06-26T06:44:47;100812.19;;;29.38;59.96
42385;BME280;28042;43.986;22.860;2023-06-26T06:47:12;100815.50;;;29.18;60.05
42385;BME280;28042;43.986;22.860;2023-06-26T06:49:38;100802.38;;;27.45;66.53
42385;BME280;28042;43.986;22.860;2023-06-26T06:52:03;100812.78;;;27.58;67.15
42385;BME280;28042;43.986;22.860;2023-06-26T06:54:29;100820.06;;;27.59;67.69
42385;BME280;28042;43.986;22.860;2023-06-26T06:56:54;100815.03;;;27.28;69.51
42385;BME280;28042;43.986;22.860;2023-06-26T06:59:21;100794.16;;;27.02;70.08
42385;BME280;28042;43.986;22.860;2023-06-26T07:01:47;100808.72;;;27.04;72.16
42385;BME280;28042;43.986;22.860;2023-06-26T07:04:12;100820.81;;;26.81;72.28
42385;BME280;28042;43.986;22.860;2023-06-26T07:06:38;100820.28;;;26.79;71.68
42385;BME280;28042;43.986;22.860;2023-06-26T07:09:03;100823.38;;;26.58;71.13
42385;BME280;28042;43.986;22.860;2023-06-26T07:11:29;100805.53;;;26.54;71.12
42385;BME280;28042;43.986;22.860;2023-06-26T07:13:55;100799.31;;;26.57;70.82
42385;BME280;28042;43.986;22.860;2023-06-26T07:16:20;100800.59;;;26.84;72.00
42385;BME280;28042;43.986;22.860;2023-06-26T07:18:46;100801.88;;;27.10;69.30
42385;BME280;28042;43.986;22.860;2023-06-26T07:21:11;100816.56;;;27.35;68.53
42385;BME280;28042;43.986;22.860;2023-06-26T07:23:37;100827.09;;;27.43;67.71
42385;BME280;28042;43.986;22.860;2023-06-26T07:26:02;100828.94;;;27.33;69.35
42385;BME280;28042;43.986;22.860;2023-06-26T07:28:28;100817.53;;;27.30;69.19
42385;BME280;28042;43.986;22.860;2023-06-26T07:30:53;100826.56;;;27.08;67.83
42385;BME280;28042;43.986;22.860;2023-06-26T07:33:18;100828.34;;;27.37;67.81
42385;BME280;28042;43.986;22.860;2023-06-26T07:35:45;100803.38;;;27.21;67.39
42385;BME280;28042;43.986;22.860;2023-06-26T07:38:11;100810.41;;;27.00;68.83
42385;BME280;28042;43.986;22.860;2023-06-26T07:40:36;100825.78;;;27.21;68.90
42385;BME280;28042;43.986;22.860;2023-06-26T07:43:02;100828.66;;;27.16;68.88
42385;BME280;28042;43.986;22.860;2023-06-26T07:45:27;100807.09;;;27.17;70.31
42385;BME280;28042;43.986;22.860;2023-06-26T07:47:53;100826.50;;;27.46;67.74
42385;BME280;28042;43.986;22.860;2023-06-26T07:50:18;100825.31;;;27.79;69.12
42385;BME280;28042;43.986;22.860;2023-06-26T07:52:47;100819.19;;;28.05;66.04
42385;BME280;28042;43.986;22.860;2023-06-26T07:55:13;100817.53;;;28.04;64.60
42385;BME280;28042;43.986;22.860;2023-06-26T07:57:38;100807.03;;;27.96;63.09
42385;BME280;28042;43.986;22.860;2023-06-26T08:00:05;100805.91;;;27.83;64.83
42385;BME280;28042;43.986;22.860;2023-06-26T08:02:32;100828.22;;;28.02;65.46
42385;BME280;28042;43.986;22.860;2023-06-26T08:04:57;100825.72;;;27.86;66.55
42385;BME280;28042;43.986;22.860;2023-06-26T08:07:22;100823.13;;;28.17;64.10
42385;BME280;28042;43.986;22.860;2023-06-26T08:09:48;100819.91;;;28.24;63.27
42385;BME280;28042;43.986;22.860;2023-06-26T08:12:13;100829.69;;;28.27;61.89
42385;BME280;28042;43.986;22.860;2023-06-26T08:14:39;100837.38;;;28.07;65.11
42385;BME280;28042;43.986;22.860;2023-06-26T08:17:04;100814.88;;;27.01;64.61
42385;BME280;28042;43.986;22.860;2023-06-26T08:19:30;100840.75;;;27.30;66.98
42385;BME280;28042;43.986;22.860;2023-06-26T08:21:55;100826.50;;;27.59;67.42
42385;BME280;28042;43.986;22.860;2023-06-26T08:24:20;100837.06;;;27.49;67.24
42385;BME280;28042;43.986;22.860;2023-06-26T08:26:46;100818.13;;;27.27;67.29
42385;BME280;28042;43.986;22.860;2023-06-26T08:29:12;100808.84;;;26.94;66.68
42385;BME280;28042;43.986;22.860;2023-06-26T08:31:38;100832.25;;;27.36;66.37
42385;BME280;28042;43.986;22.860;2023-06-26T08:34:04;100808.59;;;27.74;65.39
42385;BME280;28042;43.986;22.860;2023-06-26T08:36:30;100804.84;;;28.20;66.61
42385;BME280;28042;43.986;22.860;2023-06-26T08:38:56;100828.44;;;28.19;64.58
42385;BME280;28042;43.986;22.860;2023-06-26T08:41:21;100798.06;;;28.21;63.09
42385;BME280;28042;43.986;22.860;2023-06-26T08:43:47;100830.22;;;29.15;64.31
42385;BME280;28042;43.986;22.860;2023-06-26T08:46:14;100822.66;;;29.77;61.12
42385;BME280;28042;43.986;22.860;2023-06-26T08:48:41;100830.34;;;30.34;58.51
42385;BME280;28042;43.986;22.860;2023-06-26T08:51:13;100805.81;;;30.26;55.67
42385;BME280;28042;43.986;22.860;2023-06-26T08:53:56;100828.66;;;29.84;56.92
42385;BME280;28042;43.986;22.860;2023-06-26T08:56:24;100816.94;;;29.29;57.27
42385;BME280;28042;43.986;22.860;2023-06-26T08:58:50;100819.72;;;29.51;58.46
42385;BME280;28042;43.986;22.860;2023-06-26T09:01:16;100827.91;;;29.70;56.15
42385;BME280;28042;43.986;22.860;2023-06-26T09:03:42;100823.16;;;29.79;56.40
42385;BME280;28042;43.986;22.860;2023-06-26T09:06:08;100802.09;;;29.37;55.53
42385;BME280;28042;43.986;22.860;2023-06-26T09:08:34;100823.81;;;29.23;58.01
42385;BME280;28042;43.986;22.860;2023-06-26T09:10:59;100819.22;;;29.05;57.60
42385;BME280;28042;43.986;22.860;2023-06-26T09:13:25;100799.00;;;28.80;58.09
42385;BME280;28042;43.986;22.860;2023-06-26T09:15:53;100823.56;;;28.75;58.71
42385;BME280;28042;43.986;22.860;2023-06-26T09:18:20;100787.34;;;28.87;56.41
42385;BME280;28042;43.986;22.860;2023-06-26T09:20:46;100818.56;;;29.30;55.13
42385;BME280;28042;43.986;22.860;2023-06-26T09:23:12;100830.63;;;28.86;54.68
42385;BME280;28042;43.986;22.860;2023-06-26T09:25:39;100792.53;;;28.93;54.63
42385;BME280;28042;43.986;22.860;2023-06-26T09:28:05;100803.44;;;29.40;53.32
42385;BME280;28042;43.986;22.860;2023-06-26T09:30:32;100810.78;;;29.27;54.51
42385;BME280;28042;43.986;22.860;2023-06-26T09:33:15;100790.38;;;29.13;55.86
42385;BME280;28042;43.986;22.860;2023-06-26T09:35:41;100809.75;;;29.76;54.71
42385;BME280;28042;43.986;22.860;2023-06-26T09:38:07;100795.66;;;29.68;53.46
42385;BME280;28042;43.986;22.860;2023-06-26T09:40:33;100784.53;;;29.09;54.17
42385;BME280;28042;43.986;22.860;2023-06-26T09:43:09;100797.38;;;28.65;56.47
42385;BME280;28042;43.986;22.860;2023-06-26T09:45:35;100822.19;;;28.50;57.46
42385;BME280;28042;43.986;22.860;2023-06-26T09:48:04;100814.38;;;28.47;57.13
42385;BME280;28042;43.986;22.860;2023-06-26T09:50:32;100794.47;;;28.70;56.32
42385;BME280;28042;43.986;22.860;2023-06-26T09:53:06;100815.38;;;29.00;55.63
42385;BME280;28042;43.986;22.860;2023-06-26T09:55:34;100786.06;;;28.57;54.48
42385;BME280;28042;43.986;22.860;2023-06-26T09:58:02;100808.66;;;28.52;57.91
42385;BME280;28042;43.986;22.860;2023-06-26T10:00:27;100805.69;;;28.34;60.16
42385;BME280;28042;43.986;22.860;2023-06-26T10:02:53;100785.63;;;27.86;60.27
42385;BME280;28042;43.986;22.860;2023-06-26T10:05:19;100807.50;;;27.56;60.86
42385;BME280;28042;43.986;22.860;2023-06-26T10:07:45;100799.47;;;27.82;60.25
42385;BME280;28042;43.986;22.860;2023-06-26T10:10:12;100773.78;;;28.16;58.50
42385;BME280;28042;43.986;22.860;2023-06-26T10:12:37;100751.72;;;28.37;56.85
42385;BME280;28042;43.986;22.860;2023-06-26T10:15:03;100798.09;;;29.07;54.94
42385;BME280;28042;43.986;22.860;2023-06-26T10:17:34;100786.41;;;29.14;53.84
42385;BME280;28042;43.986;22.860;2023-06-26T10:20:02;100779.31;;;29.47;53.92
42385;BME280;28042;43.986;22.860;2023-06-26T10:22:33;100762.88;;;29.54;52.42
42385;BME280;28042;43.986;22.860;2023-06-26T10:25:03;100775.19;;;29.76;52.80
42385;BME280;28042;43.986;22.860;2023-06-26T10:27:38;100791.16;;;29.58;50.76
42385;BME280;28042;43.986;22.860;2023-06-26T10:30:13;100786.38;;;30.07;49.87
42385;BME280;28042;43.986;22.860;2023-06-26T10:32:40;100779.50;;;30.30;49.42
42385;BME280;28042;43.986;22.860;2023-06-26T10:35:06;100771.38;;;30.29;49.78
42385;BME280;28042;43.986;22.860;2023-06-26T10:38:02;100786.22;;;29.41;53.87
42385;BME280;28042;43.986;22.860;2023-06-26T10:40:40;100774.44;;;28.86;55.25
42385;BME280;28042;43.986;22.860;2023-06-26T10:43:06;100753.03;;;28.54;57.13
42385;BME280;28042;43.986;22.860;2023-06-26T10:45:34;100759.59;;;28.49;56.93
42385;BME280;28042;43.986;22.860;2023-06-26T10:48:00;100784.13;;;28.80;56.56
42385;BME280;28042;43.986;22.860;2023-06-26T10:50:27;100774.88;;;28.79;57.59
42385;BME280;28042;43.986;22.860;2023-06-26T10:56:03;100776.91;;;29.32;54.12
42385;BME280;28042;43.986;22.860;2023-06-26T11:01:23;100773.63;;;29.30;52.43
42385;BME280;28042;43.986;22.860;2023-06-26T11:04:09;100772.31;;;28.69;54.87
42385;BME280;28042;43.986;22.860;2023-06-26T11:06:36;100766.06;;;28.50;56.43
42385;BME280;28042;43.986;22.860;2023-06-26T11:14:30;100769.06;;;28.39;58.10
42385;BME280;28042;43.986;22.860;2023-06-26T11:16:56;100733.03;;;28.91;54.32
42385;BME280;28042;43.986;22.860;2023-06-26T11:19:26;100738.41;;;29.33;51.26
42385;BME280;28042;43.986;22.860;2023-06-26T11:21:58;100736.19;;;29.21;51.91
42385;BME280;28042;43.986;22.860;2023-06-26T11:24:23;100730.34;;;29.40;53.36
42385;BME280;28042;43.986;22.860;2023-06-26T11:26:49;100751.03;;;29.13;54.39
42385;BME280;28042;43.986;22.860;2023-06-26T11:29:14;100754.72;;;28.99;54.32
42385;BME280;28042;43.986;22.860;2023-06-26T11:31:41;100748.97;;;28.82;55.66
42385;BME280;28042;43.986;22.860;2023-06-26T11:34:11;100755.88;;;28.98;55.23
42385;BME280;28042;43.986;22.860;2023-06-26T11:36:38;100752.06;;;29.25;53.87
42385;BME280;28042;43.986;22.860;2023-06-26T11:39:05;100728.81;;;29.03;54.37
42385;BME280;28042;43.986;22.860;2023-06-26T11:41:32;100745.69;;;29.34;52.89
42385;BME280;28042;43.986;22.860;2023-06-26T11:44:05;100740.75;;;29.79;52.56
42385;BME280;28042;43.986;22.860;2023-06-26T11:46:31;100719.47;;;29.95;52.04
42385;BME280;28042;43.986;22.860;2023-06-26T11:48:57;100742.72;;;30.09;50.99
42385;BME280;28042;43.986;22.860;2023-06-26T11:51:22;100725.34;;;30.25;50.63
42385;BME280;28042;43.986;22.860;2023-06-26T11:53:49;100722.69;;;30.37;49.41
42385;BME280;28042;43.986;22.860;2023-06-26T11:56:16;100736.66;;;30.77;49.08
42385;BME280;28042;43.986;22.860;2023-06-26T12:01:39;100728.69;;;30.79;48.30
42385;BME280;28042;43.986;22.860;2023-06-26T12:04:09;100729.34;;;30.24;49.31
42385;BME280;28042;43.986;22.860;2023-06-26T12:06:37;100729.16;;;30.20;49.15
42385;BME280;28042;43.986;22.860;2023-06-26T12:09:05;100711.75;;;30.09;49.58
42385;BME280;28042;43.986;22.860;2023-06-26T12:11:32;100719.38;;;30.18;48.26
42385;BME280;28042;43.986;22.860;2023-06-26T12:13:59;100712.44;;;30.41;48.39
42385;BME280;28042;43.986;22.860;2023-06-26T12:16:25;100728.19;;;30.42;45.16
42385;BME280;28042;43.986;22.860;2023-06-26T12:18:51;100702.00;;;30.50;43.73
42385;BME280;28042;43.986;22.860;2023-06-26T12:24:04;100707.41;;;29.46;49.08
42385;BME280;28042;43.986;22.860;2023-06-26T12:26:30;100715.06;;;29.54;50.61
42385;BME280;28042;43.986;22.860;2023-06-26T12:29:14;100716.41;;;29.35;51.43
42385;BME280;28042;43.986;22.860;2023-06-26T12:31:45;100734.63;;;29.68;49.41
42385;BME280;28042;43.986;22.860;2023-06-26T12:34:17;100722.19;;;29.61;49.04
42385;BME280;28042;43.986;22.860;2023-06-26T12:36:48;100727.56;;;29.97;47.47
42385;BME280;28042;43.986;22.860;2023-06-26T12:39:19;100709.94;;;30.22;46.28
42385;BME280;28042;43.986;22.860;2023-06-26T12:41:52;100709.78;;;30.53;45.91
42385;BME280;28042;43.986;22.860;2023-06-26T12:44:30;100713.44;;;30.71;47.06
42385;BME280;28042;43.986;22.860;2023-06-26T12:47:01;100736.94;;;30.84;46.43
42385;BME280;28042;43.986;22.860;2023-06-26T12:49:40;100735.97;;;30.62;46.06
42385;BME280;28042;43.986;22.860;2023-06-26T12:52:12;100728.19;;;30.94;44.94
42385;BME280;28042;43.986;22.860;2023-06-26T12:54:41;100704.41;;;31.12;42.13
42385;BME280;28042;43.986;22.860;2023-06-26T12:57:07;100729.66;;;31.56;42.38
42385;BME280;28042;43.986;22.860;2023-06-26T12:59:35;100709.88;;;31.64;42.24
42385;BME280;28042;43.986;22.860;2023-06-26T13:02:01;100732.59;;;31.30;43.85